Time;durP1;ratioP1;P1;durP2;ratioP2;P2;SDS_P1;SDS_P2;PMS_P1;PMS_P2;Temp;Humidity;BMP_temperature;BMP_pressure;BME280_temperature;BME280_humidity;BME280_pressure;Samples;Min_cycle;Max_cycle;Signal;HPM_P1;HPM_P2
2022/01/22 00:01:49;;;;;;;4.70;1.80;;;0.30;90.40;;;;;;5079453;28;20661;-80
2022/01/22 00:04:16;;;;;;;8.60;2.47;;;0.40;90.10;;;;;;5080385;28;20255;-80
2022/01/22 07:45:42;;;;;;;7.17;4.97;;;0.80;99.80;;;;;;5057082;28;20316;-80
2022/01/22 07:48:09;;;;;;;8.03;4.97;;;0.80;99.80;;;;;;5054622;28;20216;-79
2022/01/22 07:50:36;;;;;;;6.60;4.50;;;0.80;99.90;;;;;;5061838;28;20259;-78
2022/01/22 07:53:04;;;;;;;9.37;5.10;;;0.90;99.90;;;;;;5073911;28;20319;-80
2022/01/22 07:55:33;;;;;;;7.80;5.63;;;0.80;99.90;;;;;;5064544;28;20230;-79
2022/01/22 08:01:35;;;;;;;6.37;4.77;;;0.80;99.90;;;;;;5061410;28;20249;-80
2022/01/22 08:04:01;;;;;;;10.10;5.70;;;0.70;99.90;;;;;;5047212;28;20200;-79
2022/01/22 08:06:28;;;;;;;6.70;5.10;;;0.80;99.90;;;;;;5050013;28;20299;-79
2022/01/22 08:08:55;;;;;;;8.17;5.07;;;0.80;99.90;;;;;;5046713;28;20201;-80
2022/01/22 08:11:22;;;;;;;6.63;4.97;;;0.80;99.90;;;;;;5054676;28;20275;-79
2022/01/22 08:14:22;;;;;;;7.67;4.80;;;0.70;99.90;;;;;;5069375;28;20199;-80
2022/01/22 08:16:50;;;;;;;6.77;5.87;;;0.80;99.90;;;;;;5050583;28;20231;-80
2022/01/22 08:19:18;;;;;;;7.77;5.43;;;0.80;99.90;;;;;;5063812;28;20197;-80
2022/01/22 08:21:46;;;;;;;9.17;6.10;;;0.80;99.90;;;;;;5059807;28;20312;-79
2022/01/22 08:24:14;;;;;;;8.80;4.80;;;0.80;99.90;;;;;;5075901;28;20203;-79
2022/01/22 08:30:15;;;;;;;7.70;5.23;;;0.80;99.90;;;;;;5077736;28;20190;-80
2022/01/22 08:33:07;;;;;;;9.43;5.73;;;0.80;99.90;;;;;;5077317;28;20236;-80
2022/01/22 08:38:18;;;;;;;10.93;5.97;;;0.80;99.90;;;;;;5068127;28;20204;-78
2022/01/22 08:41:14;;;;;;;6.43;5.27;;;0.90;99.90;;;;;;5071243;28;20228;-78
2022/01/22 08:43:41;;;;;;;8.93;5.27;;;0.80;99.90;;;;;;5064072;28;20645;-79
2022/01/22 08:46:08;;;;;;;8.73;6.00;;;0.90;99.90;;;;;;5064119;28;20227;-79
2022/01/22 08:48:47;;;;;;;7.30;5.37;;;0.80;99.90;;;;;;5068548;28;20204;-79
2022/01/22 08:51:14;;;;;;;6.67;5.37;;;0.80;99.90;;;;;;5061664;28;20564;-79
2022/01/22 08:53:49;;;;;;;7.97;5.57;;;0.90;99.90;;;;;;5070126;28;20212;-79
2022/01/22 08:56:16;;;;;;;6.87;5.30;;;0.90;99.90;;;;;;5071297;28;20224;-79
2022/01/22 08:58:43;;;;;;;9.17;6.23;;;1.00;99.90;;;;;;5070231;28;20215;-79
2022/01/22 09:01:11;;;;;;;9.07;5.90;;;1.00;99.90;;;;;;5066527;28;20230;-81
2022/01/22 09:03:38;;;;;;;8.23;5.87;;;1.00;99.90;;;;;;5068984;28;20649;-78
2022/01/22 09:06:07;;;;;;;9.63;5.93;;;1.00;99.90;;;;;;5064193;28;20216;-78
2022/01/22 09:08:34;;;;;;;8.67;5.83;;;1.00;99.90;;;;;;5068026;28;20283;-79
2022/01/22 09:11:02;;;;;;;9.70;6.33;;;1.00;99.90;;;;;;5071074;28;20226;-83
2022/01/22 09:13:29;;;;;;;6.60;5.80;;;1.00;99.90;;;;;;5073649;28;20200;-78
2022/01/22 09:15:57;;;;;;;8.63;6.17;;;1.00;99.90;;;;;;5059449;28;20236;-78
2022/01/22 09:18:25;;;;;;;8.33;5.50;;;1.00;99.90;;;;;;5069295;28;20221;-81
2022/01/22 09:21:06;;;;;;;8.73;6.03;;;1.00;99.90;;;;;;5066825;28;20243;-79
2022/01/22 09:23:34;;;;;;;8.27;6.53;;;1.00;99.90;;;;;;5069189;28;20280;-81
2022/01/22 09:26:03;;;;;;;8.13;6.20;;;1.00;99.90;;;;;;5070063;28;20676;-81
2022/01/22 09:28:32;;;;;;;8.17;6.23;;;1.00;99.90;;;;;;5077071;28;20291;-83
2022/01/22 09:30:59;;;;;;;10.30;6.57;;;1.00;99.90;;;;;;5082911;28;20227;-88
2022/01/22 09:33:26;;;;;;;10.93;6.80;;;1.10;99.90;;;;;;5098765;28;20207;-80
2022/01/22 09:35:53;;;;;;;11.70;6.70;;;1.10;99.90;;;;;;5099965;28;20233;-79
2022/01/22 09:38:20;;;;;;;13.73;7.17;;;1.10;99.90;;;;;;5096755;28;20189;-81
2022/01/22 09:40:48;;;;;;;8.93;6.50;;;1.10;99.90;;;;;;5090776;28;20685;-80
2022/01/22 09:43:16;;;;;;;9.57;6.93;;;1.10;99.90;;;;;;5092100;28;20206;-81
2022/01/22 09:45:43;;;;;;;11.50;7.10;;;1.10;99.90;;;;;;5091340;28;20230;-78
2022/01/22 09:48:10;;;;;;;10.57;6.60;;;1.10;99.90;;;;;;5092304;28;20211;-78
2022/01/22 09:50:37;;;;;;;8.33;6.60;;;1.10;99.90;;;;;;5090970;28;20716;-79
2022/01/22 09:53:05;;;;;;;8.60;6.17;;;1.00;99.90;;;;;;5087742;28;20206;-80
2022/01/22 09:55:32;;;;;;;8.03;6.33;;;1.00;99.90;;;;;;5088668;28;20306;-78
2022/01/22 09:58:00;;;;;;;8.17;6.10;;;1.10;99.90;;;;;;5092734;28;20203;-79
2022/01/22 10:00:28;;;;;;;7.77;5.80;;;1.20;99.90;;;;;;5091446;28;20224;-81
2022/01/22 10:02:58;;;;;;;13.03;6.33;;;1.20;99.90;;;;;;5088635;28;20260;-80
2022/01/22 10:05:30;;;;;;;9.27;6.57;;;1.20;99.90;;;;;;5091268;28;20220;-79
2022/01/22 10:08:27;;;;;;;8.93;6.70;;;1.10;99.90;;;;;;5090827;28;20193;-82
2022/01/22 10:10:55;;;;;;;7.97;6.07;;;1.10;99.90;;;;;;5076936;28;20648;-79
2022/01/22 10:13:42;;;;;;;7.70;6.53;;;1.20;99.90;;;;;;5071644;28;20261;-79
2022/01/22 10:16:14;;;;;;;11.60;6.40;;;1.30;99.90;;;;;;5063631;28;20715;-78
2022/01/22 10:19:15;;;;;;;9.27;6.37;;;1.20;99.90;;;;;;5071155;28;20796;-78
2022/01/22 10:21:44;;;;;;;7.60;5.93;;;1.20;99.90;;;;;;5057947;28;20228;-80
2022/01/22 10:24:36;;;;;;;12.13;6.50;;;1.20;99.90;;;;;;5066099;28;20193;-81
2022/01/22 10:27:25;;;;;;;7.50;6.30;;;1.30;99.90;;;;;;5066582;28;20220;-79
2022/01/22 10:29:55;;;;;;;6.53;5.77;;;1.20;99.90;;;;;;5064039;28;20554;-79
2022/01/22 10:32:31;;;;;;;8.50;6.63;;;1.20;99.90;;;;;;5066802;28;20577;-78
2022/01/22 10:35:09;;;;;;;8.73;6.10;;;1.30;99.90;;;;;;5064744;28;20226;-79
2022/01/22 10:37:36;;;;;;;8.73;6.00;;;1.20;99.90;;;;;;5063978;28;20221;-79
2022/01/22 10:40:21;;;;;;;9.53;6.90;;;1.40;99.90;;;;;;5071438;28;20197;-80
2022/01/22 10:42:48;;;;;;;12.20;6.10;;;1.30;99.90;;;;;;5069179;28;20196;-79
2022/01/22 10:45:25;;;;;;;9.17;5.97;;;1.30;99.90;;;;;;5071748;28;20372;-80
2022/01/22 10:48:10;;;;;;;8.37;5.83;;;1.30;99.90;;;;;;5072502;28;20558;-79
2022/01/22 10:50:37;;;;;;;7.07;6.03;;;1.40;99.90;;;;;;5072055;28;20313;-79
2022/01/22 10:53:04;;;;;;;7.37;5.80;;;1.40;99.90;;;;;;5088030;28;20654;-79
2022/01/22 10:56:10;;;;;;;7.87;6.03;;;1.30;99.90;;;;;;5082649;28;20238;-81
2022/01/22 10:58:51;;;;;;;9.27;6.13;;;1.40;99.90;;;;;;5091086;28;20224;-79
2022/01/22 11:01:20;;;;;;;12.93;7.17;;;1.30;99.90;;;;;;5080436;28;20241;-81
2022/01/22 11:04:09;;;;;;;7.50;5.90;;;1.40;99.90;;;;;;5089399;28;20219;-79
2022/01/22 11:06:37;;;;;;;11.90;6.93;;;1.40;99.90;;;;;;5070251;28;20912;-78
2022/01/22 11:09:06;;;;;;;9.80;6.10;;;1.40;99.90;;;;;;5089877;28;20219;-79
2022/01/22 11:11:36;;;;;;;11.07;7.10;;;1.40;99.90;;;;;;5087226;28;20228;-77
2022/01/22 11:14:05;;;;;;;10.77;6.93;;;1.50;99.90;;;;;;5086378;28;20195;-81
2022/01/22 11:16:33;;;;;;;9.03;6.63;;;1.50;99.90;;;;;;5086993;28;20231;-79
2022/01/22 11:19:02;;;;;;;9.93;6.20;;;1.50;99.90;;;;;;5088117;28;20204;-80
2022/01/22 11:21:30;;;;;;;7.17;6.00;;;1.60;99.90;;;;;;5087377;28;20231;-79
2022/01/22 11:23:57;;;;;;;9.30;6.37;;;1.70;99.90;;;;;;5089629;28;20275;-79
2022/01/22 11:26:24;;;;;;;9.03;6.30;;;1.70;99.90;;;;;;5088695;28;20244;-79
2022/01/22 11:28:53;;;;;;;8.03;6.40;;;1.70;99.90;;;;;;5083908;28;20189;-79
2022/01/22 11:31:23;;;;;;;8.60;6.27;;;1.70;99.90;;;;;;5080051;28;20221;-83
2022/01/22 11:33:53;;;;;;;8.87;6.60;;;1.70;99.90;;;;;;5091559;28;20196;-80
2022/01/22 11:36:25;;;;;;;8.20;6.20;;;1.70;99.90;;;;;;5091859;28;20590;-79
2022/01/22 11:38:55;;;;;;;10.07;6.37;;;1.80;99.90;;;;;;5086635;28;20220;-81
2022/01/22 11:41:23;;;;;;;11.03;7.40;;;1.70;99.90;;;;;;5093510;28;20224;-84
2022/01/22 11:44:04;;;;;;;8.23;6.23;;;1.70;99.90;;;;;;5087070;28;20205;-79
2022/01/22 11:46:35;;;;;;;10.30;6.40;;;1.70;99.90;;;;;;5088751;28;20229;-80
2022/01/22 11:49:18;;;;;;;8.77;5.97;;;1.70;99.70;;;;;;5084267;28;20195;-77
2022/01/22 11:51:48;;;;;;;11.47;5.80;;;1.70;99.90;;;;;;5086216;28;20222;-79
2022/01/22 11:54:15;;;;;;;8.00;5.33;;;1.70;99.90;;;;;;5082119;28;20199;-79
2022/01/22 11:56:46;;;;;;;10.80;6.87;;;1.80;99.80;;;;;;5087224;28;20224;-79
2022/01/22 11:59:31;;;;;;;10.73;6.17;;;1.70;99.90;;;;;;5089834;28;21016;-80
2022/01/22 12:02:07;;;;;;;8.20;5.87;;;1.80;99.90;;;;;;5088296;28;20223;-78
2022/01/22 12:05:04;;;;;;;9.60;6.40;;;1.80;99.60;;;;;;5092136;28;20665;-85
2022/01/22 12:07:35;;;;;;;9.27;6.40;;;1.80;99.90;;;;;;5079920;28;20271;-81
2022/01/22 12:16:10;;;;;;;10.37;6.30;;;1.80;99.60;;;;;;5091687;28;20273;-82
2022/01/22 12:18:41;;;;;;;8.80;6.23;;;1.90;99.60;;;;;;5093782;28;20228;-80
2022/01/22 12:21:33;;;;;;;10.80;6.27;;;1.90;99.90;;;;;;5090344;28;20236;-83
2022/01/22 12:24:02;;;;;;;8.03;5.70;;;1.90;99.90;;;;;;5081422;28;20260;-81
2022/01/22 12:26:53;;;;;;;9.33;5.67;;;1.90;99.90;;;;;;5089412;28;20228;-84
2022/01/22 12:29:41;;;;;;;11.27;6.07;;;2.00;99.60;;;;;;5086870;28;20199;-83
2022/01/22 12:32:18;;;;;;;8.50;6.03;;;2.00;99.60;;;;;;5088169;28;20225;-79
2022/01/22 12:35:00;;;;;;;9.27;6.37;;;2.00;99.60;;;;;;5086537;28;20200;-84
2022/01/22 12:37:30;;;;;;;8.37;6.07;;;1.90;99.60;;;;;;5093307;28;20225;-82
2022/01/22 12:39:58;;;;;;;8.43;5.63;;;1.90;99.60;;;;;;5091308;28;20849;-80
2022/01/22 12:42:54;;;;;;;9.60;6.50;;;2.00;99.60;;;;;;5089716;28;20200;-82
2022/01/22 12:45:22;;;;;;;8.20;6.20;;;2.00;99.60;;;;;;5087025;28;20299;-80
2022/01/22 12:47:50;;;;;;;9.17;6.40;;;2.00;99.60;;;;;;5091139;28;20207;-78
2022/01/22 12:50:23;;;;;;;10.47;7.43;;;2.00;99.60;;;;;;5089429;28;20283;-81
2022/01/22 12:53:04;;;;;;;8.33;6.37;;;1.90;99.60;;;;;;5090267;28;20258;-79
2022/01/22 12:56:13;;;;;;;12.07;6.77;;;2.00;99.70;;;;;;5088467;28;20249;-78
2022/01/22 12:58:42;;;;;;;10.13;6.60;;;2.10;99.60;;;;;;5088056;28;20670;-83
2022/01/22 13:01:24;;;;;;;9.80;6.27;;;2.00;99.60;;;;;;5088568;28;20216;-79
2022/01/22 13:03:55;;;;;;;8.60;6.53;;;2.10;99.60;;;;;;5080184;28;20211;-85
2022/01/22 13:06:26;;;;;;;10.57;6.97;;;2.10;99.60;;;;;;5085558;28;20580;-81
2022/01/22 13:09:00;;;;;;;10.67;6.90;;;2.10;99.60;;;;;;5085901;28;20197;-80
2022/01/22 13:11:28;;;;;;;9.50;6.50;;;2.00;99.60;;;;;;5087359;28;20220;-81
2022/01/22 13:13:58;;;;;;;11.47;7.50;;;2.10;99.60;;;;;;5090339;28;20276;-81
2022/01/22 13:16:31;;;;;;;10.30;7.10;;;2.00;99.60;;;;;;5080506;28;20761;-80
2022/01/22 13:19:03;;;;;;;10.87;7.50;;;2.10;99.60;;;;;;5087040;28;20216;-80
2022/01/22 13:21:32;;;;;;;10.07;7.00;;;2.00;99.60;;;;;;5090732;28;20263;-80
2022/01/22 13:24:02;;;;;;;9.37;7.10;;;2.00;99.60;;;;;;5091867;28;20203;-84
2022/01/22 13:26:51;;;;;;;9.97;6.73;;;1.90;99.60;;;;;;5089311;28;20914;-79
2022/01/22 13:29:21;;;;;;;8.93;6.23;;;2.00;99.60;;;;;;5082982;28;20224;-79
2022/01/22 13:32:05;;;;;;;10.37;6.87;;;1.90;99.60;;;;;;5086639;28;20231;-78
2022/01/22 13:34:43;;;;;;;12.50;6.73;;;1.90;99.60;;;;;;5088000;28;20279;-79
2022/01/22 13:48:34;;;;;;;9.73;7.10;;;1.80;99.90;;;;;;5082266;28;20207;-79
2022/01/22 13:51:02;;;;;;;12.47;7.20;;;1.70;99.90;;;;;;5086228;28;20667;-79
2022/01/22 13:53:32;;;;;;;10.27;7.20;;;1.80;99.90;;;;;;5091314;28;20569;-80
2022/01/22 13:56:05;;;;;;;10.13;6.80;;;1.80;99.90;;;;;;5087237;28;20231;-79
2022/01/22 13:58:32;;;;;;;12.43;6.97;;;1.80;99.90;;;;;;5089362;28;20898;-82
2022/01/22 14:01:05;;;;;;;10.03;7.40;;;1.80;99.90;;;;;;5087824;28;20617;-83
2022/01/22 14:03:38;;;;;;;10.53;7.90;;;1.80;99.90;;;;;;5089262;28;20280;-79
2022/01/22 14:06:07;;;;;;;8.93;7.03;;;1.80;99.90;;;;;;5088802;27;20700;-79
2022/01/22 14:08:34;;;;;;;10.37;7.10;;;1.80;99.90;;;;;;5080531;28;20296;-79
2022/01/22 14:11:07;;;;;;;10.00;7.07;;;1.80;99.90;;;;;;5083999;28;20227;-79
2022/01/22 14:13:34;;;;;;;11.27;7.53;;;1.90;99.90;;;;;;5084635;28;20204;-84
2022/01/22 14:16:14;;;;;;;11.17;7.70;;;1.90;99.90;;;;;;5088796;28;20903;-81
2022/01/22 14:18:43;;;;;;;9.53;7.17;;;1.90;99.90;;;;;;5088873;28;20227;-80
2022/01/22 14:21:21;;;;;;;12.43;7.83;;;1.90;99.90;;;;;;5088255;28;20229;-82
2022/01/22 14:23:52;;;;;;;12.60;7.50;;;1.90;99.90;;;;;;5089998;28;20200;-84
2022/01/22 14:26:26;;;;;;;10.00;7.07;;;1.90;99.90;;;;;;5088422;28;20243;-81
2022/01/22 14:28:56;;;;;;;10.20;7.27;;;1.80;99.90;;;;;;5075374;28;20192;-82
2022/01/22 14:31:28;;;;;;;10.67;7.13;;;1.80;99.90;;;;;;5089746;28;20244;-80
2022/01/22 14:33:59;;;;;;;11.10;7.73;;;1.80;99.90;;;;;;5092285;28;20279;-82
2022/01/22 14:36:29;;;;;;;12.67;8.00;;;1.80;99.90;;;;;;5091955;28;20598;-81
2022/01/22 14:39:12;;;;;;;10.73;7.70;;;1.80;99.90;;;;;;5092815;28;20307;-82
2022/01/22 14:44:36;;;;;;;14.20;8.43;;;1.80;99.90;;;;;;5068404;28;20212;-80
2022/01/22 14:49:40;;;;;;;12.53;7.80;;;1.80;99.90;;;;;;5386659;22;20232;-79
2022/01/22 14:52:09;;;;;;;10.40;7.70;;;1.80;99.90;;;;;;5064133;28;20217;-80
2022/01/22 14:54:37;;;;;;;10.07;7.87;;;1.70;99.90;;;;;;5058224;28;20208;-79
2022/01/22 14:57:16;;;;;;;39.37;8.33;;;1.60;99.90;;;;;;5075523;28;20224;-81
2022/01/22 14:59:43;;;;;;;13.03;7.13;;;1.80;99.90;;;;;;5059069;28;20197;-80
2022/01/22 15:02:13;;;;;;;9.67;6.70;;;1.80;99.90;;;;;;5055716;28;20224;-82
2022/01/22 15:04:47;;;;;;;11.27;7.37;;;1.80;99.90;;;;;;5057695;28;20198;-80
2022/01/22 15:07:15;;;;;;;11.57;7.10;;;1.70;99.90;;;;;;5056405;28;20333;-80
2022/01/22 15:09:45;;;;;;;10.47;7.60;;;1.70;99.90;;;;;;5036989;28;20293;-80
2022/01/22 15:12:16;;;;;;;11.50;7.60;;;1.70;99.90;;;;;;5035434;28;20226;-79
2022/01/22 15:21:28;;;;;;;11.13;6.80;;;1.70;99.90;;;;;;5049743;28;20271;-82
2022/01/22 15:23:55;;;;;;;9.10;7.03;;;1.80;99.90;;;;;;5052767;28;20232;-82
2022/01/22 15:26:24;;;;;;;10.23;7.13;;;1.80;99.90;;;;;;5059821;28;20219;-83
2022/01/22 15:32:45;;;;;;;10.83;7.13;;;1.90;99.90;;;;;;5057780;28;20228;-80
2022/01/22 15:35:14;;;;;;;12.93;7.47;;;1.80;99.90;;;;;;5043315;28;20200;-78
2022/01/22 15:37:50;;;;;;;11.60;7.40;;;1.80;99.90;;;;;;5055477;28;20221;-78
2022/01/22 15:40:19;;;;;;;13.13;7.77;;;1.80;99.90;;;;;;5055952;28;20182;-81
2022/01/22 15:42:46;;;;;;;9.90;7.40;;;1.80;99.90;;;;;;5056113;28;20225;-79
2022/01/22 15:45:15;;;;;;;13.03;8.43;;;1.70;99.90;;;;;;5050207;28;20209;-78
2022/01/22 15:47:44;;;;;;;10.37;7.60;;;1.70;99.90;;;;;;5052102;28;20652;-84
2022/01/22 15:50:11;;;;;;;11.07;8.50;;;1.70;99.90;;;;;;5049624;28;20222;-81
2022/01/22 15:52:37;;;;;;;11.17;8.47;;;1.70;99.90;;;;;;5045622;28;20954;-81
2022/01/22 15:55:08;;;;;;;10.33;8.40;;;1.70;99.90;;;;;;5051849;28;20194;-79
2022/01/22 15:57:36;;;;;;;10.73;7.90;;;1.70;99.90;;;;;;5051512;28;20204;-79
2022/01/22 16:00:05;;;;;;;11.20;7.63;;;1.80;99.90;;;;;;5056373;28;20210;-79
2022/01/22 16:02:32;;;;;;;11.97;8.00;;;1.70;99.90;;;;;;5045479;28;20210;-77
2022/01/22 16:05:00;;;;;;;11.97;8.73;;;1.70;99.90;;;;;;5052137;28;20201;-78
2022/01/22 16:07:27;;;;;;;12.40;8.53;;;1.80;99.90;;;;;;5064722;28;20844;-78
2022/01/22 16:09:55;;;;;;;13.27;8.50;;;1.70;99.90;;;;;;5066029;28;20210;-77
2022/01/22 16:12:24;;;;;;;11.23;8.00;;;1.70;99.90;;;;;;5051501;28;20224;-79
2022/01/22 16:14:50;;;;;;;9.93;7.80;;;1.80;99.90;;;;;;5052942;28;20202;-79
2022/01/22 16:17:18;;;;;;;13.37;7.60;;;1.80;99.90;;;;;;5052276;28;20232;-77
2022/01/22 16:19:45;;;;;;;10.37;7.90;;;1.90;99.90;;;;;;5052583;28;20218;-77
2022/01/22 16:22:14;;;;;;;12.07;8.37;;;1.90;99.90;;;;;;5051876;28;20701;-80
2022/01/22 16:24:45;;;;;;;13.93;8.47;;;1.70;99.90;;;;;;5052973;28;20194;-77
2022/01/22 16:27:12;;;;;;;13.43;8.43;;;1.80;99.90;;;;;;5051265;28;20221;-77
2022/01/22 16:29:39;;;;;;;11.87;8.07;;;1.80;99.90;;;;;;5037781;28;20198;-78
2022/01/22 16:32:06;;;;;;;9.70;7.80;;;1.80;99.90;;;;;;5052562;28;20222;-78
2022/01/22 16:34:33;;;;;;;13.40;8.80;;;1.80;99.90;;;;;;5052355;28;20585;-82
2022/01/22 16:36:59;;;;;;;12.67;8.83;;;1.70;99.90;;;;;;5051610;28;20234;-78
2022/01/22 16:39:31;;;;;;;10.37;8.20;;;1.70;99.90;;;;;;5053302;28;20696;-83
2022/01/22 16:42:04;;;;;;;11.50;8.37;;;1.70;99.90;;;;;;5052661;28;20222;-78
2022/01/22 16:44:37;;;;;;;12.07;8.10;;;1.80;99.90;;;;;;5053381;28;20198;-77
2022/01/22 16:53:12;;;;;;;14.60;9.00;;;1.70;99.90;;;;;;5069270;28;20229;-77
2022/01/22 16:55:40;;;;;;;14.67;9.00;;;1.70;99.90;;;;;;5067826;28;20582;-77
2022/01/22 16:58:09;;;;;;;11.30;8.97;;;1.60;99.90;;;;;;5053507;28;20232;-81
2022/01/22 17:00:42;;;;;;;12.83;8.87;;;1.60;99.90;;;;;;5053884;28;20320;-78
2022/01/22 17:03:17;;;;;;;12.70;9.03;;;1.70;99.90;;;;;;5054592;28;20213;-77
2022/01/22 17:05:51;;;;;;;11.37;8.60;;;1.80;99.90;;;;;;5049494;28;20317;-80
2022/01/22 17:08:30;;;;;;;12.40;9.57;;;1.90;99.90;;;;;;5048774;28;20575;-80
2022/01/22 17:11:10;;;;;;;12.07;9.37;;;1.90;99.90;;;;;;5041009;28;20272;-78
2022/01/22 17:16:21;;;;;;;12.67;9.13;;;1.90;99.90;;;;;;5058680;28;20247;-77
2022/01/22 17:18:50;;;;;;;12.43;9.67;;;1.80;99.90;;;;;;5049140;28;20218;-76
2022/01/22 17:21:22;;;;;;;12.23;9.37;;;1.80;99.90;;;;;;5047635;28;20222;-78
2022/01/22 17:23:50;;;;;;;13.77;10.20;;;1.80;99.90;;;;;;5052361;28;20652;-77
2022/01/22 17:26:18;;;;;;;13.47;9.87;;;1.90;99.90;;;;;;5052087;28;20249;-77
2022/01/22 17:28:47;;;;;;;15.70;10.40;;;1.80;99.90;;;;;;5052651;28;20206;-78
2022/01/22 17:31:20;;;;;;;13.63;9.63;;;1.80;99.90;;;;;;5042329;28;20225;-78
2022/01/22 17:33:55;;;;;;;13.40;9.80;;;1.80;99.90;;;;;;5051974;28;20637;-78
2022/01/22 17:36:22;;;;;;;15.67;10.07;;;1.70;99.90;;;;;;5049350;28;20214;-78
2022/01/22 17:38:50;;;;;;;14.07;9.93;;;1.80;99.90;;;;;;5051182;28;20240;-77
2022/01/22 17:41:18;;;;;;;14.83;9.97;;;1.80;99.90;;;;;;5050019;28;20226;-80
2022/01/22 17:43:47;;;;;;;13.60;10.20;;;1.80;99.90;;;;;;5049097;28;20208;-77
2022/01/22 17:46:14;;;;;;;14.43;9.53;;;1.90;99.90;;;;;;5049954;28;20226;-76
2022/01/22 17:49:29;;;;;;;15.33;10.20;;;2.00;99.90;;;;;;5064544;23;20224;-75
2022/01/22 17:51:56;;;;;;;16.13;10.33;;;1.90;99.90;;;;;;5083287;28;20343;-81
2022/01/22 17:54:23;;;;;;;15.53;10.27;;;1.90;99.90;;;;;;5084110;28;20197;-78
2022/01/22 17:56:51;;;;;;;14.97;10.40;;;1.80;99.90;;;;;;5085425;28;20220;-78
2022/01/22 17:59:21;;;;;;;13.87;10.53;;;1.70;99.90;;;;;;5089009;28;20216;-78
2022/01/22 18:01:48;;;;;;;15.90;10.40;;;1.90;99.90;;;;;;5097492;28;20216;-81
2022/01/22 18:04:15;;;;;;;15.27;10.90;;;1.80;99.90;;;;;;5103633;28;20640;-78
2022/01/22 18:06:42;;;;;;;17.10;10.53;;;1.90;99.90;;;;;;5100800;27;20614;-77
2022/01/22 18:09:10;;;;;;;14.70;10.40;;;1.90;99.90;;;;;;5101614;28;20196;-77
2022/01/22 18:11:43;;;;;;;15.00;9.77;;;1.90;99.90;;;;;;5100500;28;20243;-77
2022/01/22 18:14:11;;;;;;;15.53;11.00;;;1.90;99.90;;;;;;5094788;28;20212;-77
2022/01/22 18:16:39;;;;;;;14.63;10.03;;;1.90;99.90;;;;;;5081286;28;20200;-77
2022/01/22 18:20:00;;;;;;;20.47;10.70;;;1.90;99.90;;;;;;5080960;28;20219;-77
2022/01/22 18:22:27;;;;;;;15.20;10.47;;;2.00;99.90;;;;;;5092159;28;20295;-77
2022/01/22 18:32:29;;;;;;;18.00;10.70;;;1.90;99.90;;;;;;5099244;28;20606;-77
2022/01/22 18:35:02;;;;;;;15.37;10.70;;;1.90;99.90;;;;;;5097770;28;20709;-77
2022/01/22 18:38:20;;;;;;;16.40;10.03;;;1.90;99.90;;;;;;5098171;28;20209;-77
2022/01/22 18:40:47;;;;;;;13.97;10.40;;;1.90;99.90;;;;;;5096993;28;20913;-77
2022/01/22 18:43:19;;;;;;;15.27;10.63;;;1.90;99.90;;;;;;5100991;28;20226;-77
2022/01/22 18:45:51;;;;;;;14.07;11.17;;;1.90;99.90;;;;;;5094309;28;20587;-76
2022/01/22 18:48:26;;;;;;;16.80;11.07;;;1.90;99.90;;;;;;5096389;28;20230;-77
2022/01/22 18:51:09;;;;;;;16.17;9.83;;;1.80;99.90;;;;;;5089349;28;20627;-79
2022/01/22 18:53:38;;;;;;;15.43;10.93;;;1.80;99.90;;;;;;5086629;28;20196;-76
2022/01/22 18:56:07;;;;;;;14.20;10.43;;;1.80;99.90;;;;;;5093835;28;20223;-78
2022/01/22 18:59:26;;;;;;;16.23;10.20;;;1.90;99.90;;;;;;5087120;28;20213;-77
2022/01/22 19:01:53;;;;;;;13.00;9.20;;;2.00;99.90;;;;;;5096559;28;20654;-77
2022/01/22 19:05:00;;;;;;;13.30;10.23;;;2.00;99.90;;;;;;5096982;28;20280;-77
2022/01/22 19:07:31;;;;;;;13.70;10.30;;;1.90;99.90;;;;;;5077954;28;20278;-77
2022/01/22 19:13:20;;;;;;;13.67;9.60;;;1.90;99.90;;;;;;5076198;28;20278;-77
2022/01/22 19:15:47;;;;;;;13.57;9.83;;;1.90;99.90;;;;;;5105084;28;20239;-79
2022/01/22 19:18:15;;;;;;;14.87;10.20;;;2.00;99.90;;;;;;5099791;28;20295;-78
2022/01/22 19:20:44;;;;;;;14.53;10.27;;;1.90;99.90;;;;;;5089770;28;20229;-78
2022/01/22 19:23:44;;;;;;;13.03;10.03;;;1.90;99.90;;;;;;5077370;28;20193;-85
2022/01/22 19:26:18;;;;;;;14.67;11.00;;;1.90;99.90;;;;;;5090121;28;20224;-78
2022/01/22 19:28:45;;;;;;;13.23;10.17;;;1.90;99.90;;;;;;5094810;28;20212;-78
2022/01/22 19:31:17;;;;;;;13.90;10.40;;;1.90;99.90;;;;;;5096523;28;20280;-78
2022/01/22 19:33:44;;;;;;;15.13;11.60;;;1.90;99.90;;;;;;5094152;28;20235;-80
2022/01/22 19:36:13;;;;;;;14.43;10.20;;;1.80;99.90;;;;;;5089806;28;20224;-78
2022/01/22 19:38:41;;;;;;;14.77;11.37;;;1.90;99.90;;;;;;5082159;28;20243;-78
2022/01/22 19:41:14;;;;;;;16.20;11.10;;;2.00;99.90;;;;;;5088003;28;20217;-79
2022/01/22 19:43:45;;;;;;;14.47;10.77;;;2.00;99.90;;;;;;5092299;28;20224;-78
2022/01/22 19:46:13;;;;;;;14.07;10.27;;;2.00;99.90;;;;;;5087980;28;20224;-78
2022/01/22 19:56:20;;;;;;;14.00;10.20;;;2.00;99.90;;;;;;5093730;28;20235;-78
2022/01/22 19:58:47;;;;;;;14.70;10.13;;;2.10;99.90;;;;;;5089413;28;20224;-77
2022/01/22 20:01:16;;;;;;;15.77;10.70;;;2.10;99.90;;;;;;5099396;28;20243;-77
2022/01/22 20:03:43;;;;;;;13.40;9.47;;;2.10;99.90;;;;;;5094976;28;20204;-77
2022/01/22 20:06:10;;;;;;;15.03;10.87;;;2.00;99.90;;;;;;5107864;27;20230;-77
2022/01/22 20:08:37;;;;;;;13.33;10.50;;;2.00;99.90;;;;;;5092194;28;20279;-78
2022/01/22 20:11:04;;;;;;;14.30;10.67;;;2.00;99.90;;;;;;5087283;28;20238;-79
2022/01/22 20:13:33;;;;;;;15.00;10.43;;;1.90;99.90;;;;;;5083683;28;20205;-78
2022/01/22 20:16:01;;;;;;;14.90;10.30;;;2.00;99.90;;;;;;5094143;28;20299;-79
2022/01/22 20:18:30;;;;;;;15.70;10.27;;;2.00;99.90;;;;;;5080100;28;20288;-77
2022/01/22 20:20:57;;;;;;;14.97;10.77;;;2.00;99.90;;;;;;5075196;28;20287;-78
2022/01/22 20:23:24;;;;;;;13.20;10.37;;;1.90;99.90;;;;;;5076503;28;20185;-79
2022/01/22 20:25:51;;;;;;;14.13;10.27;;;2.00;99.90;;;;;;5094522;28;20584;-77
2022/01/22 20:28:19;;;;;;;16.53;10.20;;;1.90;99.90;;;;;;5095979;28;20192;-77
2022/01/22 20:30:49;;;;;;;12.67;9.93;;;2.00;99.90;;;;;;5096434;28;20574;-81
2022/01/22 20:33:33;;;;;;;15.13;10.50;;;2.00;99.90;;;;;;5088622;28;20703;-78
2022/01/22 20:36:02;;;;;;;14.10;9.83;;;1.90;99.90;;;;;;5084275;28;20295;-77
2022/01/22 20:38:45;;;;;;;14.07;9.53;;;2.00;99.90;;;;;;5078623;28;20216;-79
2022/01/22 20:41:13;;;;;;;12.80;9.83;;;2.00;99.90;;;;;;5094176;28;20246;-78
2022/01/22 20:43:42;;;;;;;14.57;9.50;;;2.00;99.90;;;;;;5095214;28;20557;-77
2022/01/22 20:46:11;;;;;;;14.50;10.20;;;2.00;99.90;;;;;;5094285;28;20232;-78
2022/01/22 20:48:38;;;;;;;13.07;9.33;;;1.90;99.90;;;;;;5082116;28;20221;-78
2022/01/22 20:51:05;;;;;;;13.47;9.43;;;2.00;99.90;;;;;;5091691;28;20232;-80
2022/01/22 20:53:49;;;;;;;13.27;9.20;;;1.90;99.90;;;;;;5089320;28;20249;-82
2022/01/22 20:56:16;;;;;;;13.00;8.97;;;2.00;99.90;;;;;;5081377;28;20217;-78
2022/01/22 20:58:42;;;;;;;12.50;9.87;;;2.00;99.90;;;;;;5089558;28;20188;-78
2022/01/22 21:01:28;;;;;;;11.60;9.20;;;2.00;99.90;;;;;;5091511;28;20244;-77
2022/01/22 21:03:59;;;;;;;11.80;8.80;;;2.00;99.90;;;;;;5095253;28;20200;-77
2022/01/22 21:06:28;;;;;;;11.90;8.90;;;2.10;99.90;;;;;;5088649;28;20200;-78
2022/01/22 21:08:55;;;;;;;12.53;9.27;;;2.10;99.90;;;;;;5087089;28;20204;-77
2022/01/22 21:11:22;;;;;;;13.77;9.50;;;2.20;99.90;;;;;;5089367;28;20204;-77
2022/01/22 21:13:50;;;;;;;12.27;9.27;;;2.10;99.90;;;;;;5088779;28;20199;-77
2022/01/22 21:16:18;;;;;;;13.40;9.77;;;2.10;99.90;;;;;;5083199;28;20197;-77
2022/01/22 21:18:49;;;;;;;13.10;10.00;;;2.10;99.90;;;;;;5081889;28;20292;-77
2022/01/22 21:21:18;;;;;;;13.67;9.77;;;2.10;99.90;;;;;;5074226;28;20232;-78
2022/01/22 21:23:46;;;;;;;14.60;10.27;;;2.00;99.90;;;;;;5074545;28;20196;-79
2022/01/22 21:29:57;;;;;;;15.10;10.47;;;2.10;99.90;;;;;;5073706;28;20185;-78
2022/01/22 21:32:26;;;;;;;12.17;9.77;;;2.10;99.90;;;;;;5076249;28;20231;-82
2022/01/22 21:34:56;;;;;;;14.63;10.70;;;2.10;99.90;;;;;;5076224;28;20644;-79
2022/01/22 21:37:55;;;;;;;13.87;10.33;;;2.10;99.90;;;;;;5073769;28;20229;-80
2022/01/22 21:40:22;;;;;;;14.77;10.33;;;2.20;99.90;;;;;;5075529;28;20217;-79
2022/01/22 21:42:50;;;;;;;13.93;10.47;;;2.20;99.90;;;;;;5078980;28;20280;-79
2022/01/22 21:45:18;;;;;;;15.67;11.30;;;2.20;99.90;;;;;;5083189;28;20201;-80
2022/01/22 21:47:45;;;;;;;14.83;10.67;;;2.20;99.90;;;;;;5091795;28;20200;-77
2022/01/22 21:55:19;;;;;;;18.13;11.80;;;2.20;99.90;;;;;;5051781;28;20214;-78
2022/01/22 21:58:04;;;;;;;17.20;11.37;;;2.20;99.90;;;;;;5053798;28;20208;-78
2022/01/22 22:00:31;;;;;;;16.70;11.60;;;2.20;99.90;;;;;;5059496;28;20232;-79
2022/01/22 22:03:00;;;;;;;16.20;11.43;;;2.20;99.90;;;;;;5094912;28;20185;-79
2022/01/22 22:05:31;;;;;;;17.80;11.27;;;2.10;99.90;;;;;;5094476;28;20224;-78
2022/01/22 22:07:58;;;;;;;17.70;12.03;;;2.20;99.90;;;;;;5078370;28;20284;-78
2022/01/22 22:10:27;;;;;;;18.73;12.03;;;2.20;99.90;;;;;;5078230;28;20203;-78
2022/01/22 22:12:57;;;;;;;21.37;12.33;;;2.20;99.90;;;;;;5075612;28;20201;-78